sensor_id;sensor_type;location;lat;lon;timestamp;P1;durP1;ratioP1;P2;durP2;ratioP2
63953;SDS011;50128;52.094;5.232;2023-02-28T00:02:47;8.81;;;4.5;;
63953;SDS011;50128;52.094;5.232;2023-02-28T00:04:24;8.81;;;4.41;;
63953;SDS011;50128;52.094;5.232;2023-02-28T00:06:00;7.0;;;4.2;;
63953;SDS011;50128;52.094;5.232;2023-02-28T00:09:14;7.2;;;4.3;;
63953;SDS011;50128;52.094;5.232;2023-02-28T00:10:50;8.31;;;4.5;;
63953;SDS011;50128;52.094;5.232;2023-02-28T00:12:27;7.2;;;4.0;;
63953;SDS011;50128;52.094;5.232;2023-02-28T00:15:38;7.3;;;3.8;;
63953;SDS011;50128;52.094;5.232;2023-02-28T00:17:15;5.5;;;3.6;;
63953;SDS011;50128;52.094;5.232;2023-02-28T00:18:51;7.0;;;3.9;;
63953;SDS011;50128;52.094;5.232;2023-02-28T00:20:27;6.7;;;4.0;;
63953;SDS011;50128;52.094;5.232;2023-02-28T00:23:39;8.1;;;4.3;;
63953;SDS011;50128;52.094;5.232;2023-02-28T00:25:16;10.1;;;4.3;;
63953;SDS011;50128;52.094;5.232;2023-02-28T00:26:55;7.0;;;3.6;;
63953;SDS011;50128;52.094;5.232;2023-02-28T00:30:09;8.31;;;4.41;;
63953;SDS011;50128;52.094;5.232;2023-02-28T00:31:51;8.5;;;4.41;;
63953;SDS011;50128;52.094;5.232;2023-02-28T00:33:27;6.4;;;4.3;;
63953;SDS011;50128;52.094;5.232;2023-02-28T00:35:05;7.0;;;3.9;;
63953;SDS011;50128;52.094;5.232;2023-02-28T00:38:19;7.5;;;4.3;;
63953;SDS011;50128;52.094;5.232;2023-02-28T00:39:56;7.6;;;3.9;;
63953;SDS011;50128;52.094;5.232;2023-02-28T00:41:32;8.4;;;4.3;;
63953;SDS011;50128;52.094;5.232;2023-02-28T00:44:44;6.7;;;4.5;;
63953;SDS011;50128;52.094;5.232;2023-02-28T00:46:20;7.7;;;4.2;;
63953;SDS011;50128;52.094;5.232;2023-02-28T00:47:56;6.0;;;3.9;;
63953;SDS011;50128;52.094;5.232;2023-02-28T00:51:09;7.3;;;4.1;;
63953;SDS011;50128;52.094;5.232;2023-02-28T00:52:45;7.4;;;4.0;;
63953;SDS011;50128;52.094;5.232;2023-02-28T00:54:22;6.7;;;4.1;;
63953;SDS011;50128;52.094;5.232;2023-02-28T00:55:59;7.7;;;3.9;;
63953;SDS011;50128;52.094;5.232;2023-02-28T00:59:12;7.6;;;4.41;;
63953;SDS011;50128;52.094;5.232;2023-02-28T01:00:49;8.6;;;4.5;;
63953;SDS011;50128;52.094;5.232;2023-02-28T01:02:26;6.8;;;4.1;;
63953;SDS011;50128;52.094;5.232;2023-02-28T01:05:38;8.0;;;4.3;;
63953;SDS011;50128;52.094;5.232;2023-02-28T01:07:14;6.9;;;3.8;;
63953;SDS011;50128;52.094;5.232;2023-02-28T01:08:50;8.5;;;4.2;;
63953;SDS011;50128;52.094;5.232;2023-02-28T01:12:04;7.4;;;3.9;;
63953;SDS011;50128;52.094;5.232;2023-02-28T01:13:40;8.31;;;4.0;;
63953;SDS011;50128;52.094;5.232;2023-02-28T01:18:29;6.7;;;3.7;;
63953;SDS011;50128;52.094;5.232;2023-02-28T01:20:06;8.1;;;3.8;;
63953;SDS011;50128;52.094;5.232;2023-02-28T01:21:42;8.1;;;3.8;;
63953;SDS011;50128;52.094;5.232;2023-02-28T01:23:18;7.7;;;3.6;;
63953;SDS011;50128;52.094;5.232;2023-02-28T01:26:32;7.4;;;3.5;;
63953;SDS011;50128;52.094;5.232;2023-02-28T01:28:08;6.6;;;3.9;;
63953;SDS011;50128;52.094;5.232;2023-02-28T01:29:44;6.9;;;4.0;;
63953;SDS011;50128;52.094;5.232;2023-02-28T01:32:58;6.8;;;3.7;;
63953;SDS011;50128;52.094;5.232;2023-02-28T01:34:35;7.5;;;4.3;;
63953;SDS011;50128;52.094;5.232;2023-02-28T01:36:12;7.1;;;4.0;;
63953;SDS011;50128;52.094;5.232;2023-02-28T01:37:51;6.9;;;3.9;;
63953;SDS011;50128;52.094;5.232;2023-02-28T01:41:03;8.5;;;3.8;;
63953;SDS011;50128;52.094;5.232;2023-02-28T01:42:40;10.4;;;4.5;;
63953;SDS011;50128;52.094;5.232;2023-02-28T01:45:22;8.0;;;3.7;;
63953;SDS011;50128;52.094;5.232;2023-02-28T01:47:01;6.7;;;3.6;;
63953;SDS011;50128;52.094;5.232;2023-02-28T01:48:38;6.4;;;3.7;;
63953;SDS011;50128;52.094;5.232;2023-02-28T01:51:58;7.1;;;3.9;;
63953;SDS011;50128;52.094;5.232;2023-02-28T01:53:35;7.6;;;3.9;;
63953;SDS011;50128;52.094;5.232;2023-02-28T01:55:17;8.0;;;4.1;;
63953;SDS011;50128;52.094;5.232;2023-02-28T01:56:58;7.4;;;3.9;;
63953;SDS011;50128;52.094;5.232;2023-02-28T02:00:18;7.2;;;3.6;;
63953;SDS011;50128;52.094;5.232;2023-02-28T02:01:59;7.6;;;3.7;;
63953;SDS011;50128;52.094;5.232;2023-02-28T02:03:36;6.6;;;3.4;;
63953;SDS011;50128;52.094;5.232;2023-02-28T02:05:14;7.4;;;4.0;;
63953;SDS011;50128;52.094;5.232;2023-02-28T02:08:30;6.2;;;3.3;;
63953;SDS011;50128;52.094;5.232;2023-02-28T02:10:10;6.9;;;3.7;;
63953;SDS011;50128;52.094;5.232;2023-02-28T02:11:50;7.9;;;4.0;;
63953;SDS011;50128;52.094;5.232;2023-02-28T02:13:34;7.6;;;3.8;;
63953;SDS011;50128;52.094;5.232;2023-02-28T02:17:14;6.5;;;3.6;;
63953;SDS011;50128;52.094;5.232;2023-02-28T02:19:02;6.8;;;4.0;;
63953;SDS011;50128;52.094;5.232;2023-02-28T02:21:07;8.0;;;4.0;;
63953;SDS011;50128;52.094;5.232;2023-02-28T02:27:17;6.8;;;3.6;;
63953;SDS011;50128;52.094;5.232;2023-02-28T02:29:49;9.81;;;4.0;;
63953;SDS011;50128;52.094;5.232;2023-02-28T02:33:09;8.31;;;4.0;;
63953;SDS011;50128;52.094;5.232;2023-02-28T02:35:27;6.7;;;3.4;;
63953;SDS011;50128;52.094;5.232;2023-02-28T02:37:11;7.6;;;4.1;;
63953;SDS011;50128;52.094;5.232;2023-02-28T02:38:56;7.8;;;3.7;;
63953;SDS011;50128;52.094;5.232;2023-02-28T02:40:42;6.6;;;4.0;;
63953;SDS011;50128;52.094;5.232;2023-02-28T02:44:17;9.5;;;4.0;;
63953;SDS011;50128;52.094;5.232;2023-02-28T02:45:58;7.7;;;3.8;;
63953;SDS011;50128;52.094;5.232;2023-02-28T02:47:40;6.9;;;4.3;;
63953;SDS011;50128;52.094;5.232;2023-02-28T02:49:19;6.8;;;3.8;;
63953;SDS011;50128;52.094;5.232;2023-02-28T02:52:42;6.9;;;3.7;;
63953;SDS011;50128;52.094;5.232;2023-02-28T02:54:32;7.5;;;3.6;;
63953;SDS011;50128;52.094;5.232;2023-02-28T02:56:12;7.4;;;4.0;;
63953;SDS011;50128;52.094;5.232;2023-02-28T02:57:51;6.3;;;3.9;;
63953;SDS011;50128;52.094;5.232;2023-02-28T02:59:33;6.4;;;3.2;;
63953;SDS011;50128;52.094;5.232;2023-02-28T03:02:54;7.1;;;3.9;;
63953;SDS011;50128;52.094;5.232;2023-02-28T03:04:33;7.1;;;3.9;;
63953;SDS011;50128;52.094;5.232;2023-02-28T03:06:17;6.2;;;3.6;;
63953;SDS011;50128;52.094;5.232;2023-02-28T03:07:54;6.8;;;4.1;;
63953;SDS011;50128;52.094;5.232;2023-02-28T03:11:11;7.1;;;3.3;;
63953;SDS011;50128;52.094;5.232;2023-02-28T03:12:51;7.0;;;3.6;;
63953;SDS011;50128;52.094;5.232;2023-02-28T03:14:43;7.8;;;3.7;;
63953;SDS011;50128;52.094;5.232;2023-02-28T03:16:33;6.8;;;3.4;;
63953;SDS011;50128;52.094;5.232;2023-02-28T03:18:17;7.4;;;3.6;;
63953;SDS011;50128;52.094;5.232;2023-02-28T03:21:53;8.0;;;3.7;;
63953;SDS011;50128;52.094;5.232;2023-02-28T03:23:42;8.4;;;3.8;;
63953;SDS011;50128;52.094;5.232;2023-02-28T03:25:28;8.6;;;3.7;;
63953;SDS011;50128;52.094;5.232;2023-02-28T03:27:13;7.2;;;3.6;;
63953;SDS011;50128;52.094;5.232;2023-02-28T03:28:58;7.5;;;3.5;;
63953;SDS011;50128;52.094;5.232;2023-02-28T03:32:26;7.2;;;3.8;;
63953;SDS011;50128;52.094;5.232;2023-02-28T03:34:10;6.3;;;3.4;;
63953;SDS011;50128;52.094;5.232;2023-02-28T03:35:54;7.8;;;4.0;;
63953;SDS011;50128;52.094;5.232;2023-02-28T03:37:35;6.6;;;3.5;;
63953;SDS011;50128;52.094;5.232;2023-02-28T03:39:17;6.8;;;3.6;;
63953;SDS011;50128;52.094;5.232;2023-02-28T03:42:41;6.1;;;3.1;;
63953;SDS011;50128;52.094;5.232;2023-02-28T03:44:22;5.5;;;3.3;;
63953;SDS011;50128;52.094;5.232;2023-02-28T03:46:06;6.9;;;3.7;;
63953;SDS011;50128;52.094;5.232;2023-02-28T03:47:47;5.8;;;3.8;;
63953;SDS011;50128;52.094;5.232;2023-02-28T03:51:10;7.8;;;3.8;;
63953;SDS011;50128;52.094;5.232;2023-02-28T03:52:52;7.3;;;3.6;;
63953;SDS011;50128;52.094;5.232;2023-02-28T03:54:38;6.9;;;3.4;;
63953;SDS011;50128;52.094;5.232;2023-02-28T03:56:22;8.9;;;3.7;;
63953;SDS011;50128;52.094;5.232;2023-02-28T03:58:04;7.6;;;3.7;;
63953;SDS011;50128;52.094;5.232;2023-02-28T04:01:35;8.5;;;3.8;;
63953;SDS011;50128;52.094;5.232;2023-02-28T04:03:16;8.2;;;4.2;;
63953;SDS011;50128;52.094;5.232;2023-02-28T04:04:52;6.2;;;3.4;;
63953;SDS011;50128;52.094;5.232;2023-02-28T04:06:29;7.0;;;3.5;;
63953;SDS011;50128;52.094;5.232;2023-02-28T04:09:44;8.6;;;4.1;;
63953;SDS011;50128;52.094;5.232;2023-02-28T04:11:21;7.3;;;4.0;;
63953;SDS011;50128;52.094;5.232;2023-02-28T04:13:02;6.6;;;3.5;;
63953;SDS011;50128;52.094;5.232;2023-02-28T04:16:14;8.2;;;3.7;;
63953;SDS011;50128;52.094;5.232;2023-02-28T04:17:51;6.2;;;3.7;;
63953;SDS011;50128;52.094;5.232;2023-02-28T04:19:28;6.2;;;4.1;;
63953;SDS011;50128;52.094;5.232;2023-02-28T04:21:04;8.0;;;4.7;;
63953;SDS011;50128;52.094;5.232;2023-02-28T04:24:18;8.1;;;4.0;;
63953;SDS011;50128;52.094;5.232;2023-02-28T04:25:56;7.2;;;4.3;;
63953;SDS011;50128;52.094;5.232;2023-02-28T04:27:32;8.71;;;4.7;;
63953;SDS011;50128;52.094;5.232;2023-02-28T04:30:53;7.9;;;4.41;;
63953;SDS011;50128;52.094;5.232;2023-02-28T04:32:31;7.3;;;4.5;;
63953;SDS011;50128;52.094;5.232;2023-02-28T04:34:07;6.9;;;4.3;;
63953;SDS011;50128;52.094;5.232;2023-02-28T04:35:43;5.5;;;4.0;;
63953;SDS011;50128;52.094;5.232;2023-02-28T04:38:55;6.9;;;4.3;;
63953;SDS011;50128;52.094;5.232;2023-02-28T04:40:32;7.9;;;4.2;;
63953;SDS011;50128;52.094;5.232;2023-02-28T04:42:09;7.9;;;3.9;;
63953;SDS011;50128;52.094;5.232;2023-02-28T04:45:22;5.6;;;3.6;;
63953;SDS011;50128;52.094;5.232;2023-02-28T04:46:58;6.6;;;3.6;;
63953;SDS011;50128;52.094;5.232;2023-02-28T04:48:35;6.8;;;4.0;;
63953;SDS011;50128;52.094;5.232;2023-02-28T04:51:49;7.5;;;3.7;;
63953;SDS011;50128;52.094;5.232;2023-02-28T04:53:26;6.7;;;3.8;;
63953;SDS011;50128;52.094;5.232;2023-02-28T04:55:04;6.6;;;3.8;;
63953;SDS011;50128;52.094;5.232;2023-02-28T04:56:41;7.6;;;4.0;;
63953;SDS011;50128;52.094;5.232;2023-02-28T04:59:54;6.0;;;3.6;;
63953;SDS011;50128;52.094;5.232;2023-02-28T05:01:31;5.8;;;3.5;;
63953;SDS011;50128;52.094;5.232;2023-02-28T05:03:08;5.8;;;3.5;;
63953;SDS011;50128;52.094;5.232;2023-02-28T05:06:21;6.1;;;3.4;;
63953;SDS011;50128;52.094;5.232;2023-02-28T05:07:59;6.3;;;3.3;;
63953;SDS011;50128;52.094;5.232;2023-02-28T05:09:35;5.3;;;3.1;;
63953;SDS011;50128;52.094;5.232;2023-02-28T05:12:52;6.1;;;3.1;;
63953;SDS011;50128;52.094;5.232;2023-02-28T05:14:28;5.8;;;3.3;;
63953;SDS011;50128;52.094;5.232;2023-02-28T05:16:05;6.5;;;3.3;;
63953;SDS011;50128;52.094;5.232;2023-02-28T05:17:42;5.8;;;3.3;;
63953;SDS011;50128;52.094;5.232;2023-02-28T05:20:55;5.8;;;3.3;;
63953;SDS011;50128;52.094;5.232;2023-02-28T05:22:31;5.7;;;3.2;;
63953;SDS011;50128;52.094;5.232;2023-02-28T05:24:09;6.2;;;3.3;;
63953;SDS011;50128;52.094;5.232;2023-02-28T05:27:23;6.0;;;3.2;;
63953;SDS011;50128;52.094;5.232;2023-02-28T05:28:59;5.7;;;3.0;;
63953;SDS011;50128;52.094;5.232;2023-02-28T05:30:36;4.8;;;3.3;;
63953;SDS011;50128;52.094;5.232;2023-02-28T05:32:12;5.5;;;3.2;;
63953;SDS011;50128;52.094;5.232;2023-02-28T05:35:26;6.2;;;3.2;;
63953;SDS011;50128;52.094;5.232;2023-02-28T05:37:02;6.7;;;3.3;;
63953;SDS011;50128;52.094;5.232;2023-02-28T05:38:38;5.2;;;3.3;;
63953;SDS011;50128;52.094;5.232;2023-02-28T05:41:52;5.7;;;3.3;;
63953;SDS011;50128;52.094;5.232;2023-02-28T05:43:28;7.3;;;3.6;;
63953;SDS011;50128;52.094;5.232;2023-02-28T05:45:04;6.5;;;3.7;;
63953;SDS011;50128;52.094;5.232;2023-02-28T05:48:17;5.0;;;3.2;;
63953;SDS011;50128;52.094;5.232;2023-02-28T05:49:53;7.2;;;3.9;;
63953;SDS011;50128;52.094;5.232;2023-02-28T05:51:29;5.8;;;3.9;;
63953;SDS011;50128;52.094;5.232;2023-02-28T05:53:06;6.8;;;4.0;;
63953;SDS011;50128;52.094;5.232;2023-02-28T05:56:18;6.3;;;4.3;;
63953;SDS011;50128;52.094;5.232;2023-02-28T05:57:54;5.9;;;3.9;;
63953;SDS011;50128;52.094;5.232;2023-02-28T05:59:30;6.1;;;3.9;;
63953;SDS011;50128;52.094;5.232;2023-02-28T06:03:08;8.0;;;4.2;;
63953;SDS011;50128;52.094;5.232;2023-02-28T06:04:45;6.0;;;3.6;;
63953;SDS011;50128;52.094;5.232;2023-02-28T06:06:22;6.1;;;4.0;;
63953;SDS011;50128;52.094;5.232;2023-02-28T06:07:58;5.11;;;3.9;;
63953;SDS011;50128;52.094;5.232;2023-02-28T06:11:11;5.11;;;3.9;;
63953;SDS011;50128;52.094;5.232;2023-02-28T06:12:48;6.3;;;4.2;;
63953;SDS011;50128;52.094;5.232;2023-02-28T06:14:24;6.7;;;4.2;;
63953;SDS011;50128;52.094;5.232;2023-02-28T06:17:37;6.9;;;4.5;;
63953;SDS011;50128;52.094;5.232;2023-02-28T06:19:13;6.1;;;4.41;;
63953;SDS011;50128;52.094;5.232;2023-02-28T06:20:52;7.6;;;4.7;;
63953;SDS011;50128;52.094;5.232;2023-02-28T06:22:28;8.2;;;5.11;;
63953;SDS011;50128;52.094;5.232;2023-02-28T06:25:44;7.5;;;5.11;;
63953;SDS011;50128;52.094;5.232;2023-02-28T06:27:20;7.5;;;6.0;;
63953;SDS011;50128;52.094;5.232;2023-02-28T06:28:57;8.5;;;5.9;;
63953;SDS011;50128;52.094;5.232;2023-02-28T06:32:09;6.4;;;4.91;;
63953;SDS011;50128;52.094;5.232;2023-02-28T06:33:45;6.9;;;4.7;;
63953;SDS011;50128;52.094;5.232;2023-02-28T06:35:22;8.2;;;5.11;;
63953;SDS011;50128;52.094;5.232;2023-02-28T06:36:58;7.0;;;4.8;;
63953;SDS011;50128;52.094;5.232;2023-02-28T06:40:14;7.0;;;4.3;;
63953;SDS011;50128;52.094;5.232;2023-02-28T06:41:51;6.4;;;4.91;;
63953;SDS011;50128;52.094;5.232;2023-02-28T06:43:27;7.4;;;4.8;;
63953;SDS011;50128;52.094;5.232;2023-02-28T06:46:43;6.4;;;4.2;;
63953;SDS011;50128;52.094;5.232;2023-02-28T06:48:20;6.9;;;4.41;;
63953;SDS011;50128;52.094;5.232;2023-02-28T06:49:56;6.5;;;4.5;;
63953;SDS011;50128;52.094;5.232;2023-02-28T06:53:09;7.1;;;5.4;;
63953;SDS011;50128;52.094;5.232;2023-02-28T06:54:45;6.1;;;4.61;;
63953;SDS011;50128;52.094;5.232;2023-02-28T06:56:21;6.7;;;5.11;;
63953;SDS011;50128;52.094;5.232;2023-02-28T06:57:57;7.2;;;5.7;;
63953;SDS011;50128;52.094;5.232;2023-02-28T07:01:10;7.8;;;5.7;;
63953;SDS011;50128;52.094;5.232;2023-02-28T07:02:49;7.3;;;5.0;;
63953;SDS011;50128;52.094;5.232;2023-02-28T07:04:25;10.8;;;6.3;;
63953;SDS011;50128;52.094;5.232;2023-02-28T07:07:38;8.2;;;5.2;;
63953;SDS011;50128;52.094;5.232;2023-02-28T07:09:15;7.0;;;5.11;;
63953;SDS011;50128;52.094;5.232;2023-02-28T07:10:52;6.2;;;5.11;;
63953;SDS011;50128;52.094;5.232;2023-02-28T07:14:05;8.2;;;5.7;;
63953;SDS011;50128;52.094;5.232;2023-02-28T07:15:41;6.3;;;4.5;;
63953;SDS011;50128;52.094;5.232;2023-02-28T07:17:17;6.8;;;5.11;;
63953;SDS011;50128;52.094;5.232;2023-02-28T07:18:53;7.3;;;4.91;;
63953;SDS011;50128;52.094;5.232;2023-02-28T07:22:07;7.9;;;5.0;;
63953;SDS011;50128;52.094;5.232;2023-02-28T07:23:43;8.1;;;5.11;;
63953;SDS011;50128;52.094;5.232;2023-02-28T07:25:20;8.1;;;5.0;;
63953;SDS011;50128;52.094;5.232;2023-02-28T07:28:33;8.0;;;5.0;;
63953;SDS011;50128;52.094;5.232;2023-02-28T07:30:10;7.4;;;5.11;;
63953;SDS011;50128;52.094;5.232;2023-02-28T07:31:46;7.7;;;5.11;;
63953;SDS011;50128;52.094;5.232;2023-02-28T07:34:58;7.2;;;4.8;;
63953;SDS011;50128;52.094;5.232;2023-02-28T07:36:34;6.8;;;4.91;;
63953;SDS011;50128;52.094;5.232;2023-02-28T07:38:11;6.6;;;5.0;;
63953;SDS011;50128;52.094;5.232;2023-02-28T07:39:47;7.7;;;5.5;;
63953;SDS011;50128;52.094;5.232;2023-02-28T07:42:59;7.2;;;5.11;;
63953;SDS011;50128;52.094;5.232;2023-02-28T07:44:36;6.4;;;5.11;;
63953;SDS011;50128;52.094;5.232;2023-02-28T07:46:14;6.8;;;5.11;;
63953;SDS011;50128;52.094;5.232;2023-02-28T07:49:29;8.0;;;5.4;;
63953;SDS011;50128;52.094;5.232;2023-02-28T07:51:05;8.6;;;5.6;;
63953;SDS011;50128;52.094;5.232;2023-02-28T07:52:41;8.1;;;5.9;;
63953;SDS011;50128;52.094;5.232;2023-02-28T07:55:54;8.0;;;5.8;;
63953;SDS011;50128;52.094;5.232;2023-02-28T07:57:31;7.8;;;5.2;;
63953;SDS011;50128;52.094;5.232;2023-02-28T07:59:07;9.71;;;6.0;;
63953;SDS011;50128;52.094;5.232;2023-02-28T08:00:43;6.8;;;4.91;;
63953;SDS011;50128;52.094;5.232;2023-02-28T08:03:56;6.9;;;5.11;;
63953;SDS011;50128;52.094;5.232;2023-02-28T08:05:32;8.0;;;6.0;;
63953;SDS011;50128;52.094;5.232;2023-02-28T08:07:08;7.7;;;5.5;;
63953;SDS011;50128;52.094;5.232;2023-02-28T08:10:20;7.9;;;5.7;;
63953;SDS011;50128;52.094;5.232;2023-02-28T08:11:57;7.2;;;5.2;;
63953;SDS011;50128;52.094;5.232;2023-02-28T08:13:33;6.5;;;5.3;;
63953;SDS011;50128;52.094;5.232;2023-02-28T08:16:46;9.1;;;6.6;;
63953;SDS011;50128;52.094;5.232;2023-02-28T08:18:23;6.8;;;5.3;;
63953;SDS011;50128;52.094;5.232;2023-02-28T08:19:59;8.31;;;6.1;;
63953;SDS011;50128;52.094;5.232;2023-02-28T08:21:36;7.5;;;5.8;;
63953;SDS011;50128;52.094;5.232;2023-02-28T08:24:49;8.4;;;6.3;;
63953;SDS011;50128;52.094;5.232;2023-02-28T08:26:25;8.1;;;5.9;;
63953;SDS011;50128;52.094;5.232;2023-02-28T08:28:01;8.0;;;5.2;;
63953;SDS011;50128;52.094;5.232;2023-02-28T08:31:15;9.9;;;5.2;;
63953;SDS011;50128;52.094;5.232;2023-02-28T08:32:53;8.0;;;4.91;;
63953;SDS011;50128;52.094;5.232;2023-02-28T08:34:29;10.9;;;7.4;;
63953;SDS011;50128;52.094;5.232;2023-02-28T08:37:43;6.7;;;5.3;;
63953;SDS011;50128;52.094;5.232;2023-02-28T08:39:19;7.0;;;5.11;;
63953;SDS011;50128;52.094;5.232;2023-02-28T08:40:56;9.71;;;5.11;;
63953;SDS011;50128;52.094;5.232;2023-02-28T08:42:34;5.9;;;4.2;;
63953;SDS011;50128;52.094;5.232;2023-02-28T08:45:50;7.0;;;4.1;;
63953;SDS011;50128;52.094;5.232;2023-02-28T08:47:27;6.0;;;3.9;;
63953;SDS011;50128;52.094;5.232;2023-02-28T08:49:03;7.3;;;4.0;;
63953;SDS011;50128;52.094;5.232;2023-02-28T08:52:15;6.9;;;4.41;;
63953;SDS011;50128;52.094;5.232;2023-02-28T08:53:53;7.2;;;4.3;;
63953;SDS011;50128;52.094;5.232;2023-02-28T08:55:30;5.8;;;4.41;;
63953;SDS011;50128;52.094;5.232;2023-02-28T08:58:42;6.5;;;4.61;;
63953;SDS011;50128;52.094;5.232;2023-02-28T09:00:21;8.5;;;6.1;;
63953;SDS011;50128;52.094;5.232;2023-02-28T09:01:57;7.3;;;4.5;;
63953;SDS011;50128;52.094;5.232;2023-02-28T09:03:33;5.5;;;3.5;;
63953;SDS011;50128;52.094;5.232;2023-02-28T09:06:46;5.0;;;3.3;;
63953;SDS011;50128;52.094;5.232;2023-02-28T09:08:22;5.8;;;3.9;;
63953;SDS011;50128;52.094;5.232;2023-02-28T09:09:59;7.5;;;4.0;;
63953;SDS011;50128;52.094;5.232;2023-02-28T09:13:12;4.61;;;3.3;;
63953;SDS011;50128;52.094;5.232;2023-02-28T09:14:48;5.0;;;3.4;;
63953;SDS011;50128;52.094;5.232;2023-02-28T09:16:24;6.5;;;3.9;;
63953;SDS011;50128;52.094;5.232;2023-02-28T09:19:37;7.2;;;4.8;;
63953;SDS011;50128;52.094;5.232;2023-02-28T09:21:14;8.6;;;5.11;;
63953;SDS011;50128;52.094;5.232;2023-02-28T09:22:52;7.2;;;4.41;;
63953;SDS011;50128;52.094;5.232;2023-02-28T09:24:28;6.6;;;4.1;;
63953;SDS011;50128;52.094;5.232;2023-02-28T09:27:41;5.4;;;3.3;;
63953;SDS011;50128;52.094;5.232;2023-02-28T09:29:17;4.5;;;3.3;;
63953;SDS011;50128;52.094;5.232;2023-02-28T09:30:54;7.0;;;4.0;;
63953;SDS011;50128;52.094;5.232;2023-02-28T09:34:07;4.7;;;2.9;;
63953;SDS011;50128;52.094;5.232;2023-02-28T09:35:43;8.1;;;3.8;;
63953;SDS011;50128;52.094;5.232;2023-02-28T09:37:19;4.5;;;3.2;;
63953;SDS011;50128;52.094;5.232;2023-02-28T09:40:32;5.2;;;3.0;;
63953;SDS011;50128;52.094;5.232;2023-02-28T09:42:17;6.1;;;3.4;;
63953;SDS011;50128;52.094;5.232;2023-02-28T09:44:05;5.5;;;2.6;;
63953;SDS011;50128;52.094;5.232;2023-02-28T09:45:50;5.11;;;3.2;;
63953;SDS011;50128;52.094;5.232;2023-02-28T09:47:31;5.11;;;3.3;;
63953;SDS011;50128;52.094;5.232;2023-02-28T09:50:52;4.41;;;2.4;;
63953;SDS011;50128;52.094;5.232;2023-02-28T09:52:37;5.11;;;3.0;;
63953;SDS011;50128;52.094;5.232;2023-02-28T09:54:14;5.7;;;3.3;;
63953;SDS011;50128;52.094;5.232;2023-02-28T09:55:53;5.3;;;2.7;;
63953;SDS011;50128;52.094;5.232;2023-02-28T09:59:18;5.9;;;3.1;;
63953;SDS011;50128;52.094;5.232;2023-02-28T10:01:19;5.6;;;3.0;;
63953;SDS011;50128;52.094;5.232;2023-02-28T10:03:12;5.11;;;3.2;;
63953;SDS011;50128;52.094;5.232;2023-02-28T10:05:02;4.8;;;2.9;;
63953;SDS011;50128;52.094;5.232;2023-02-28T10:06:44;4.7;;;2.0;;
63953;SDS011;50128;52.094;5.232;2023-02-28T10:08:25;4.7;;;2.0;;
63953;SDS011;50128;52.094;5.232;2023-02-28T10:11:57;3.5;;;1.8;;
63953;SDS011;50128;52.094;5.232;2023-02-28T10:13:42;3.5;;;2.1;;
63953;SDS011;50128;52.094;5.232;2023-02-28T10:15:28;3.8;;;2.31;;
63953;SDS011;50128;52.094;5.232;2023-02-28T10:17:08;2.8;;;1.4;;
63953;SDS011;50128;52.094;5.232;2023-02-28T10:18:50;4.5;;;2.31;;
63953;SDS011;50128;52.094;5.232;2023-02-28T10:22:14;3.6;;;1.7;;
63953;SDS011;50128;52.094;5.232;2023-02-28T10:23:59;4.5;;;2.0;;
63953;SDS011;50128;52.094;5.232;2023-02-28T10:25:54;3.3;;;1.9;;
63953;SDS011;50128;52.094;5.232;2023-02-28T10:27:34;4.41;;;2.21;;
63953;SDS011;50128;52.094;5.232;2023-02-28T10:29:10;5.2;;;1.9;;
63953;SDS011;50128;52.094;5.232;2023-02-28T10:32:26;3.8;;;2.4;;
63953;SDS011;50128;52.094;5.232;2023-02-28T10:34:07;4.0;;;2.21;;
63953;SDS011;50128;52.094;5.232;2023-02-28T10:35:47;4.91;;;2.1;;
63953;SDS011;50128;52.094;5.232;2023-02-28T10:39:02;3.8;;;1.9;;
63953;SDS011;50128;52.094;5.232;2023-02-28T10:41:11;4.7;;;2.9;;
63953;SDS011;50128;52.094;5.232;2023-02-28T10:42:54;3.1;;;1.6;;
63953;SDS011;50128;52.094;5.232;2023-02-28T10:44:34;3.7;;;2.0;;
63953;SDS011;50128;52.094;5.232;2023-02-28T10:46:11;3.7;;;2.0;;
63953;SDS011;50128;52.094;5.232;2023-02-28T10:49:30;3.1;;;1.7;;
63953;SDS011;50128;52.094;5.232;2023-02-28T10:51:07;4.1;;;1.7;;
63953;SDS011;50128;52.094;5.232;2023-02-28T10:52:45;3.1;;;1.6;;
63953;SDS011;50128;52.094;5.232;2023-02-28T10:54:22;4.1;;;1.6;;
63953;SDS011;50128;52.094;5.232;2023-02-28T10:57:49;2.8;;;1.6;;
63953;SDS011;50128;52.094;5.232;2023-02-28T10:59:27;3.2;;;1.6;;
63953;SDS011;50128;52.094;5.232;2023-02-28T11:01:10;4.41;;;1.8;;
63953;SDS011;50128;52.094;5.232;2023-02-28T11:02:49;3.4;;;1.6;;
63953;SDS011;50128;52.094;5.232;2023-02-28T11:06:14;4.1;;;1.6;;
63953;SDS011;50128;52.094;5.232;2023-02-28T11:07:54;3.5;;;1.7;;
63953;SDS011;50128;52.094;5.232;2023-02-28T11:09:35;3.2;;;1.4;;
63953;SDS011;50128;52.094;5.232;2023-02-28T11:11:14;3.5;;;1.8;;
63953;SDS011;50128;52.094;5.232;2023-02-28T11:14:31;4.8;;;1.8;;
63953;SDS011;50128;52.094;5.232;2023-02-28T11:16:29;3.0;;;1.8;;
63953;SDS011;50128;52.094;5.232;2023-02-28T11:18:16;4.1;;;2.0;;
63953;SDS011;50128;52.094;5.232;2023-02-28T11:19:59;3.3;;;1.6;;
63953;SDS011;50128;52.094;5.232;2023-02-28T11:21:39;4.91;;;2.0;;
63953;SDS011;50128;52.094;5.232;2023-02-28T11:25:06;3.8;;;1.8;;
63953;SDS011;50128;52.094;5.232;2023-02-28T11:26:46;4.8;;;2.1;;
63953;SDS011;50128;52.094;5.232;2023-02-28T11:28:25;4.3;;;2.21;;
63953;SDS011;50128;52.094;5.232;2023-02-28T11:30:12;2.9;;;1.4;;
63953;SDS011;50128;52.094;5.232;2023-02-28T11:32:01;3.0;;;1.5;;
63953;SDS011;50128;52.094;5.232;2023-02-28T11:35:28;4.3;;;2.0;;
63953;SDS011;50128;52.094;5.232;2023-02-28T11:37:10;3.2;;;1.7;;
63953;SDS011;50128;52.094;5.232;2023-02-28T11:38:50;3.2;;;1.6;;
63953;SDS011;50128;52.094;5.232;2023-02-28T11:40:31;2.6;;;1.4;;
63953;SDS011;50128;52.094;5.232;2023-02-28T11:45:17;3.8;;;1.7;;
63953;SDS011;50128;52.094;5.232;2023-02-28T11:47:15;3.2;;;1.7;;
63953;SDS011;50128;52.094;5.232;2023-02-28T11:49:02;3.1;;;1.6;;
63953;SDS011;50128;52.094;5.232;2023-02-28T11:50:55;3.2;;;1.8;;
63953;SDS011;50128;52.094;5.232;2023-02-28T11:54:27;2.9;;;1.5;;
63953;SDS011;50128;52.094;5.232;2023-02-28T11:56:29;3.0;;;1.6;;
63953;SDS011;50128;52.094;5.232;2023-02-28T11:58:14;3.3;;;1.4;;
63953;SDS011;50128;52.094;5.232;2023-02-28T12:00:30;4.61;;;1.8;;
63953;SDS011;50128;52.094;5.232;2023-02-28T12:02:22;3.4;;;1.5;;
63953;SDS011;50128;52.094;5.232;2023-02-28T12:04:04;4.3;;;1.9;;
63953;SDS011;50128;52.094;5.232;2023-02-28T12:05:58;3.2;;;1.6;;
63953;SDS011;50128;52.094;5.232;2023-02-28T12:07:56;4.1;;;1.7;;
63953;SDS011;50128;52.094;5.232;2023-02-28T12:09:47;3.2;;;1.6;;
63953;SDS011;50128;52.094;5.232;2023-02-28T12:13:27;4.3;;;1.6;;
63953;SDS011;50128;52.094;5.232;2023-02-28T12:15:22;4.3;;;1.6;;
63953;SDS011;50128;52.094;5.232;2023-02-28T12:18:25;3.1;;;1.5;;
63953;SDS011;50128;52.094;5.232;2023-02-28T12:20:29;2.6;;;1.3;;
63953;SDS011;50128;52.094;5.232;2023-02-28T12:22:16;4.2;;;1.6;;
63953;SDS011;50128;52.094;5.232;2023-02-28T12:26:28;3.0;;;1.7;;
63953;SDS011;50128;52.094;5.232;2023-02-28T12:29:54;4.1;;;1.7;;
63953;SDS011;50128;52.094;5.232;2023-02-28T12:31:35;2.9;;;1.5;;
63953;SDS011;50128;52.094;5.232;2023-02-28T12:33:15;3.1;;;1.2;;
63953;SDS011;50128;52.094;5.232;2023-02-28T12:34:57;3.1;;;1.5;;
63953;SDS011;50128;52.094;5.232;2023-02-28T12:38:19;2.9;;;1.6;;
63953;SDS011;50128;52.094;5.232;2023-02-28T12:40:01;2.7;;;1.4;;
63953;SDS011;50128;52.094;5.232;2023-02-28T12:41:41;2.9;;;1.4;;
63953;SDS011;50128;52.094;5.232;2023-02-28T12:43:22;3.3;;;1.6;;
63953;SDS011;50128;52.094;5.232;2023-02-28T12:46:51;4.0;;;1.7;;
63953;SDS011;50128;52.094;5.232;2023-02-28T12:48:39;4.1;;;1.8;;
63953;SDS011;50128;52.094;5.232;2023-02-28T12:50:18;2.8;;;1.5;;
63953;SDS011;50128;52.094;5.232;2023-02-28T12:51:56;3.0;;;1.6;;
63953;SDS011;50128;52.094;5.232;2023-02-28T12:53:35;3.5;;;1.5;;
63953;SDS011;50128;52.094;5.232;2023-02-28T12:57:15;3.7;;;1.5;;
63953;SDS011;50128;52.094;5.232;2023-02-28T12:59:01;4.2;;;1.6;;
63953;SDS011;50128;52.094;5.232;2023-02-28T13:00:49;3.1;;;1.8;;
63953;SDS011;50128;52.094;5.232;2023-02-28T13:03:41;4.41;;;1.6;;
63953;SDS011;50128;52.094;5.232;2023-02-28T13:05:32;2.8;;;1.8;;
63953;SDS011;50128;52.094;5.232;2023-02-28T13:08:23;3.1;;;1.6;;
63953;SDS011;50128;52.094;5.232;2023-02-28T13:10:39;3.5;;;1.6;;
63953;SDS011;50128;52.094;5.232;2023-02-28T13:12:20;3.4;;;1.4;;
63953;SDS011;50128;52.094;5.232;2023-02-28T13:15:37;4.5;;;1.7;;